createdAt,value
2023-03-25T00:00:30.799Z,7.13
2023-03-25T00:05:33.426Z,10.35
2023-03-25T00:10:36.130Z,7.03
2023-03-25T00:15:42.852Z,3.03
2023-03-25T00:20:46.188Z,3.42
2023-03-25T00:25:50.077Z,5.47
2023-03-25T00:30:53.935Z,5.40
2023-03-25T00:35:59.607Z,9.18
2023-03-25T00:41:28.659Z,6.13
2023-03-25T00:46:33.618Z,13.85
2023-03-25T00:51:36.430Z,4.10
2023-03-25T00:56:56.410Z,3.78
2023-03-25T01:01:59.216Z,6.57
2023-03-25T01:07:03.621Z,10.18
2023-03-25T01:12:06.701Z,16.38
2023-03-25T01:17:09.735Z,8.70
2023-03-25T01:22:12.982Z,9.00
2023-03-25T01:27:17.586Z,4.47
2023-03-25T01:32:20.910Z,8.48
2023-03-25T01:37:25.748Z,11.45
2023-03-25T01:42:28.382Z,8.73
2023-03-25T01:47:31.282Z,7.63
2023-03-25T01:52:34.021Z,6.00
2023-03-25T01:57:38.139Z,8.55
2023-03-25T02:02:42.441Z,4.82
2023-03-25T02:07:48.348Z,23.60
2023-03-25T02:12:51.275Z,9.57
2023-03-25T02:18:16.339Z,12.52
2023-03-25T02:23:58.017Z,12.50
2023-03-25T02:29:13.572Z,16.65
2023-03-25T02:34:34.639Z,8.93
2023-03-25T02:39:59.991Z,8.50
2023-03-25T02:45:11.990Z,6.35
2023-03-25T02:50:48.549Z,12.05
2023-03-25T02:55:53.122Z,12.93
2023-03-25T03:00:58.976Z,15.98
2023-03-25T03:06:05.226Z,14.95
2023-03-25T03:11:28.873Z,11.32
2023-03-25T03:16:51.072Z,16.10
2023-03-25T03:22:21.371Z,8.15
2023-03-25T03:27:34.226Z,9.02
2023-03-25T03:32:53.793Z,6.75
2023-03-25T03:38:03.947Z,13.05
2023-03-25T03:43:27.188Z,11.43
2023-03-25T03:48:55.272Z,5.53
2023-03-25T03:54:06.502Z,6.53
2023-03-25T03:59:41.411Z,6.03
2023-03-25T04:04:45.421Z,7.83
2023-03-25T04:09:56.806Z,6.20
2023-03-25T04:15:04.426Z,8.15
2023-03-25T04:20:11.772Z,3.88
2023-03-25T04:25:14.701Z,6.45
2023-03-25T04:30:20.261Z,17.67
2023-03-25T04:35:23.176Z,11.27
2023-03-25T04:40:26.471Z,5.82
2023-03-25T04:45:30.756Z,4.22
2023-03-25T04:50:34.153Z,6.47
2023-03-25T05:00:54.354Z,0.68
2023-03-25T05:05:56.910Z,1.98
2023-03-25T05:10:59.595Z,0.80
2023-03-25T05:16:02.301Z,0.90
2023-03-25T05:21:05.259Z,0.40
2023-03-25T05:26:08.695Z,0.43
2023-03-25T05:31:11.246Z,0.68
2023-03-25T05:36:16.467Z,3.47
2023-03-25T05:41:18.984Z,1.15
2023-03-25T05:46:21.571Z,2.55
2023-03-25T05:51:26.267Z,1.08
2023-03-25T05:56:29.826Z,2.55
2023-03-25T06:01:34.274Z,1.98
2023-03-25T06:06:37.402Z,2.78
2023-03-25T06:11:40.174Z,4.82
2023-03-25T06:16:43.940Z,4.13
2023-03-25T06:21:49.508Z,1.50
2023-03-25T06:26:52.033Z,6.05
2023-03-25T06:31:54.680Z,6.43
2023-03-25T06:36:57.357Z,3.13
2023-03-25T06:42:01.188Z,5.68
2023-03-25T06:47:20.045Z,8.38
2023-03-25T06:52:25.713Z,8.68
2023-03-25T06:57:28.289Z,1.27
2023-03-25T07:02:30.812Z,3.85
2023-03-25T07:07:33.477Z,3.20
2023-03-25T07:12:36.416Z,3.15
2023-03-25T07:17:39.156Z,9.13
2023-03-25T07:22:41.886Z,4.07
2023-03-25T07:27:44.449Z,4.80
2023-03-25T07:32:52.029Z,1.83
2023-03-25T07:37:54.577Z,2.17
2023-03-25T07:42:57.122Z,3.10
2023-03-25T07:48:14.824Z,3.23
2023-03-25T07:53:17.694Z,2.78
2023-03-25T07:58:20.645Z,2.22
2023-03-25T08:03:23.326Z,3.33
2023-03-25T08:08:26.075Z,4.15
2023-03-25T08:13:29.081Z,7.55
2023-03-25T08:18:31.724Z,9.00
2023-03-25T08:23:37.098Z,5.15
2023-03-25T08:28:39.819Z,6.50
2023-03-25T08:33:43.014Z,5.07
2023-03-25T08:38:46.593Z,5.53
2023-03-25T08:43:50.431Z,8.00
2023-03-25T08:48:53.832Z,9.57
2023-03-25T08:53:56.466Z,7.72
2023-03-25T08:58:59.061Z,7.00
2023-03-25T09:04:01.724Z,4.57
2023-03-25T09:09:05.618Z,8.52
2023-03-25T09:14:08.436Z,11.93
2023-03-25T09:19:11.236Z,6.07
2023-03-25T09:24:13.974Z,7.53
2023-03-25T09:29:16.781Z,9.00
2023-03-25T09:34:19.372Z,5.93
2023-03-25T09:39:22.143Z,12.85
2023-03-25T09:44:36.022Z,6.63
2023-03-25T09:49:44.028Z,8.55
2023-03-25T09:55:09.401Z,8.55
2023-03-25T10:06:10.702Z,13.52
2023-03-25T10:11:39.546Z,3.90
2023-03-25T10:17:17.804Z,3.28
2023-03-25T10:22:29.737Z,5.20
2023-03-25T10:27:41.618Z,5.60
2023-03-25T10:32:57.521Z,9.00
2023-03-25T10:38:14.455Z,6.20
2023-03-25T10:43:36.269Z,4.75
2023-03-25T10:48:39.663Z,9.30
2023-03-25T10:53:46.378Z,4.93
2023-03-25T10:58:54.463Z,7.35
2023-03-25T11:03:59.478Z,3.40
2023-03-25T11:09:18.422Z,3.63
2023-03-25T11:14:28.803Z,5.78
2023-03-25T11:19:53.636Z,7.80
2023-03-25T11:25:21.536Z,5.57
2023-03-25T11:30:26.020Z,10.77
2023-03-25T11:35:34.696Z,19.15
2023-03-25T11:40:37.529Z,5.53
2023-03-25T11:45:40.153Z,3.88
2023-03-25T11:50:52.849Z,8.20
2023-03-25T11:56:07.925Z,7.80
2023-03-25T12:01:45.892Z,5.72
2023-03-25T12:07:08.704Z,6.00
2023-03-25T12:13:24.408Z,8.20
2023-03-25T12:19:02.459Z,7.10
2023-03-25T12:24:21.691Z,4.93
2023-03-25T12:29:33.939Z,5.43
2023-03-25T12:35:04.507Z,4.65
2023-03-25T12:40:32.798Z,10.45
2023-03-25T12:46:16.277Z,7.25
2023-03-25T12:51:42.986Z,7.00
2023-03-25T12:57:13.454Z,16.90
2023-03-25T13:02:54.817Z,17.00
2023-03-25T13:08:19.597Z,9.40
2023-03-25T13:13:25.864Z,8.17
2023-03-25T13:18:36.958Z,6.53
2023-03-25T13:23:40.884Z,13.90
2023-03-25T13:28:47.738Z,9.40
2023-03-25T13:34:26.223Z,13.90
2023-03-25T13:40:12.045Z,2.83
2023-03-25T13:50:30.038Z,7.10
2023-03-25T14:01:35.401Z,5.03
2023-03-25T14:07:03.483Z,6.03
2023-03-25T14:07:06.757Z,11.43
2023-03-25T14:12:33.228Z,7.93
2023-03-25T14:17:37.229Z,10.00
2023-03-25T14:22:43.890Z,7.47
2023-03-25T14:27:50.930Z,13.02
2023-03-25T14:32:56.582Z,11.52
2023-03-25T14:38:08.553Z,12.15
2023-03-25T14:43:46.384Z,10.38
2023-03-25T14:49:13.856Z,16.95
2023-03-25T14:54:30.406Z,20.73
2023-03-25T14:59:57.909Z,10.82
2023-03-25T15:05:13.808Z,10.55
2023-03-25T15:10:49.250Z,7.85
2023-03-25T15:16:02.485Z,8.18
2023-03-25T15:21:11.950Z,7.10
2023-03-25T15:26:35.378Z,3.63
2023-03-25T15:31:56.106Z,3.20
2023-03-25T15:37:53.588Z,5.28
2023-03-25T15:43:24.910Z,5.97
2023-03-25T15:49:22.643Z,4.47
2023-03-25T15:54:50.456Z,7.10
2023-03-25T16:00:13.713Z,8.35
2023-03-25T16:05:18.693Z,7.72
2023-03-25T16:10:33.163Z,7.60
2023-03-25T16:15:37.470Z,18.23
2023-03-25T16:20:41.801Z,16.17
2023-03-25T16:25:45.630Z,31.43
2023-03-25T16:30:54.145Z,18.08
2023-03-25T16:36:07.004Z,13.43
2023-03-25T16:41:14.970Z,15.55
2023-03-25T16:46:19.933Z,16.75
2023-03-25T16:51:36.216Z,11.82
2023-03-25T16:56:39.744Z,18.88
2023-03-25T17:01:50.474Z,29.65
2023-03-25T17:07:12.575Z,26.10
2023-03-25T17:12:21.106Z,19.55
2023-03-25T17:17:33.066Z,21.63
2023-03-25T17:22:39.780Z,17.42
2023-03-25T17:27:43.548Z,14.95
2023-03-25T17:32:47.018Z,15.65
2023-03-25T17:37:52.948Z,13.65
2023-03-25T17:42:57.104Z,11.52
2023-03-25T17:47:59.734Z,18.23
2023-03-25T17:53:02.373Z,20.90
2023-03-25T17:58:05.000Z,18.02
2023-03-25T18:03:19.769Z,15.75
2023-03-25T18:08:25.318Z,17.55
2023-03-25T18:13:28.116Z,12.27
2023-03-25T18:18:31.229Z,19.52
2023-03-25T18:23:33.769Z,14.85
2023-03-25T18:28:36.297Z,13.32
2023-03-25T18:33:38.920Z,14.15
2023-03-25T18:38:43.571Z,11.82
2023-03-25T18:43:46.459Z,18.52
2023-03-25T18:48:49.037Z,9.90
2023-03-25T18:53:51.993Z,11.13
2023-03-25T18:58:54.997Z,16.42
2023-03-25T19:04:02.579Z,12.38
2023-03-25T19:09:05.713Z,17.73
2023-03-25T19:14:08.327Z,11.57
2023-03-25T19:19:12.511Z,11.23
2023-03-25T19:24:15.158Z,10.33
2023-03-25T19:29:17.715Z,17.38
2023-03-25T19:34:22.170Z,11.38
2023-03-25T19:39:25.904Z,10.45
2023-03-25T19:44:28.733Z,11.48
2023-03-25T19:49:39.780Z,11.02
2023-03-25T19:54:42.866Z,12.77
2023-03-25T19:59:45.524Z,11.57
2023-03-25T20:04:48.230Z,11.50
2023-03-25T20:09:50.956Z,9.98
2023-03-25T20:14:53.560Z,9.88
2023-03-25T20:19:56.117Z,15.00
2023-03-25T20:24:58.710Z,11.52
2023-03-25T20:30:01.480Z,15.05
2023-03-25T20:35:05.136Z,12.55
2023-03-25T20:40:12.907Z,7.53
2023-03-25T20:45:18.255Z,21.88
2023-03-25T20:50:21.886Z,13.45
2023-03-25T20:55:24.664Z,15.13
2023-03-25T21:00:28.014Z,15.05
2023-03-25T21:05:30.862Z,18.63
2023-03-25T21:10:33.471Z,16.83
2023-03-25T21:15:39.622Z,18.67
2023-03-25T21:20:42.223Z,23.35
2023-03-25T21:25:49.512Z,18.85
2023-03-25T21:31:17.249Z,16.63
2023-03-25T21:36:24.410Z,24.10
2023-03-25T21:41:29.971Z,26.80
2023-03-25T21:46:33.735Z,28.85
2023-03-25T21:51:42.545Z,32.10
2023-03-25T21:56:45.379Z,34.50
2023-03-25T22:01:48.168Z,31.70
2023-03-25T22:06:50.966Z,11.43
2023-03-25T22:11:53.778Z,12.23
2023-03-25T22:16:56.580Z,17.00
2023-03-25T22:21:59.361Z,11.73
2023-03-25T22:27:01.909Z,11.20
2023-03-25T22:32:07.232Z,17.13
2023-03-25T22:37:10.039Z,11.55
2023-03-25T22:42:12.843Z,23.45
2023-03-25T22:47:15.713Z,14.30
2023-03-25T22:52:18.292Z,9.48
2023-03-25T22:57:20.940Z,17.65
2023-03-25T23:02:23.656Z,13.30
2023-03-25T23:07:26.590Z,16.60
2023-03-25T23:12:29.265Z,13.95
2023-03-25T23:17:31.995Z,15.00
2023-03-25T23:22:34.739Z,11.80
2023-03-25T23:27:37.544Z,12.10
2023-03-25T23:32:42.059Z,23.13
2023-03-25T23:37:50.384Z,12.23
2023-03-25T23:42:53.494Z,30.35
2023-03-25T23:47:56.829Z,28.05
2023-03-25T23:53:01.639Z,24.13
2023-03-25T23:58:04.325Z,12.93
